Time;durP1;ratioP1;P1;durP2;ratioP2;P2;SDS_P1;SDS_P2;PMS_P1;PMS_P2;Temp;Humidity;BMP_temperature;BMP_pressure;BME280_temperature;BME280_humidity;BME280_pressure;Samples;Min_cycle;Max_cycle;Signal;HPM_P1;HPM_P2
2023/01/22 00:02:23;;;;;;;12.68;8.57;;;;;;;;;;4999209;28;20619;-68
2023/01/22 00:04:49;;;;;;;16.88;9.30;;;;;;;;;;5011783;28;20516;-68
2023/01/22 00:07:15;;;;;;;16.80;8.98;;;;;;;;;;5011998;28;20041;-68
2023/01/22 00:09:41;;;;;;;16.65;8.68;;;;;;;;;;5022404;28;20037;-68
2023/01/22 00:12:08;;;;;;;14.73;8.60;;;;;;;;;;5032139;28;20102;-68
2023/01/22 00:14:34;;;;;;;14.98;9.45;;;;;;;;;;5031672;28;20039;-68
2023/01/22 00:17:00;;;;;;;13.68;8.98;;;;;;;;;;5028060;28;20048;-68
2023/01/22 00:19:26;;;;;;;13.68;8.30;;;;;;;;;;5032312;28;20059;-68
2023/01/22 00:21:52;;;;;;;15.25;8.30;;;;;;;;;;5032708;28;20041;-68
2023/01/22 00:24:18;;;;;;;16.42;8.75;;;;;;;;;;5032235;28;20048;-68
2023/01/22 00:26:44;;;;;;;16.85;8.75;;;;;;;;;;5032552;28;20052;-68
2023/01/22 00:29:11;;;;;;;14.23;8.70;;;;;;;;;;5032555;28;20033;-68
2023/01/22 00:31:37;;;;;;;18.38;8.18;;;;;;;;;;5032482;28;20128;-68
2023/01/22 00:34:03;;;;;;;15.27;8.65;;;;;;;;;;5032481;28;20037;-68
2023/01/22 00:36:29;;;;;;;17.13;9.20;;;;;;;;;;5016521;28;20037;-68
2023/01/22 00:38:55;;;;;;;20.05;9.52;;;;;;;;;;5032244;28;20441;-68
2023/01/22 00:41:21;;;;;;;17.95;9.27;;;;;;;;;;5032679;28;20124;-68
2023/01/22 00:43:47;;;;;;;16.70;9.68;;;;;;;;;;5015679;28;20049;-68
2023/01/22 00:46:15;;;;;;;18.27;9.88;;;;;;;;;;5015468;28;20048;-68
2023/01/22 00:48:41;;;;;;;19.95;9.75;;;;;;;;;;5032264;28;20127;-68
2023/01/22 00:51:07;;;;;;;17.63;10.68;;;;;;;;;;5032456;28;20037;-68
2023/01/22 00:53:34;;;;;;;21.23;10.95;;;;;;;;;;5031922;28;20459;-68
2023/01/22 00:56:01;;;;;;;20.77;10.80;;;;;;;;;;5032232;28;20049;-68
2023/01/22 00:58:28;;;;;;;19.40;10.48;;;;;;;;;;5032641;28;20052;-68
2023/01/22 01:00:54;;;;;;;23.30;10.77;;;;;;;;;;5032357;28;20128;-68
2023/01/22 01:03:27;;;;;;;23.83;11.93;;;;;;;;;;5019774;28;20251;-68
2023/01/22 01:05:56;;;;;;;23.02;11.75;;;;;;;;;;5036220;28;20635;-68
2023/01/22 01:08:23;;;;;;;26.35;12.60;;;;;;;;;;5035779;28;20037;-68
2023/01/22 01:10:53;;;;;;;24.63;13.05;;;;;;;;;;5032949;28;20049;-68
2023/01/22 01:13:20;;;;;;;24.85;13.93;;;;;;;;;;5036027;28;20040;-68
2023/01/22 01:15:46;;;;;;;26.52;12.55;;;;;;;;;;5035875;28;20472;-68
2023/01/22 01:18:13;;;;;;;26.80;13.27;;;;;;;;;;5036304;28;20055;-68
2023/01/22 01:20:39;;;;;;;26.90;13.68;;;;;;;;;;5035664;28;20114;-68
2023/01/22 01:23:05;;;;;;;24.00;13.38;;;;;;;;;;5035637;28;20048;-68
2023/01/22 01:25:31;;;;;;;24.05;12.18;;;;;;;;;;5035663;28;20443;-68
2023/01/22 01:27:58;;;;;;;26.25;14.10;;;;;;;;;;5035785;28;20045;-68
2023/01/22 01:30:24;;;;;;;29.10;14.20;;;;;;;;;;5053370;28;20045;-68
2023/01/22 01:32:50;;;;;;;27.02;13.23;;;;;;;;;;5019076;28;20082;-68
2023/01/22 01:35:18;;;;;;;26.27;13.38;;;;;;;;;;5035711;28;20368;-68
2023/01/22 01:37:44;;;;;;;23.83;12.40;;;;;;;;;;5035483;28;20067;-68
2023/01/22 01:40:10;;;;;;;24.42;13.00;;;;;;;;;;5035742;28;20552;-68
2023/01/22 01:42:38;;;;;;;27.05;13.20;;;;;;;;;;5035583;28;20045;-68
2023/01/22 01:45:20;;;;;;;25.25;13.13;;;;;;;;;;5035127;28;20044;-68
2023/01/22 01:47:46;;;;;;;23.38;12.82;;;;;;;;;;5035684;28;20399;-68
2023/01/22 01:50:12;;;;;;;25.35;12.63;;;;;;;;;;5018764;28;20049;-68
2023/01/22 01:52:38;;;;;;;25.08;13.05;;;;;;;;;;5018524;28;20048;-68
2023/01/22 01:55:06;;;;;;;22.35;11.70;;;;;;;;;;5035266;28;20036;-68
2023/01/22 01:57:33;;;;;;;23.90;12.57;;;;;;;;;;5035214;28;20389;-68
2023/01/22 02:00:00;;;;;;;26.50;13.18;;;;;;;;;;5034894;28;20056;-68
2023/01/22 02:02:26;;;;;;;21.75;12.27;;;;;;;;;;5035164;28;20179;-68
2023/01/22 02:04:52;;;;;;;25.38;11.93;;;;;;;;;;5018561;28;20391;-68
2023/01/22 02:07:19;;;;;;;26.05;12.32;;;;;;;;;;5034583;28;20622;-68
2023/01/22 02:09:45;;;;;;;22.30;12.20;;;;;;;;;;5035320;28;20499;-68
2023/01/22 02:12:11;;;;;;;21.92;12.10;;;;;;;;;;5034423;28;20559;-68
2023/01/22 02:14:39;;;;;;;26.05;12.07;;;;;;;;;;5033962;28;20047;-68
2023/01/22 02:17:10;;;;;;;21.00;12.27;;;;;;;;;;5035121;28;20479;-68
2023/01/22 02:19:36;;;;;;;21.33;12.20;;;;;;;;;;5034938;28;20418;-68
2023/01/22 02:22:02;;;;;;;23.27;12.30;;;;;;;;;;5034578;28;20179;-68
2023/01/22 02:24:30;;;;;;;20.25;11.13;;;;;;;;;;5034779;28;20044;-68
2023/01/22 02:26:56;;;;;;;19.58;10.57;;;;;;;;;;5034572;28;20095;-68
2023/01/22 02:29:25;;;;;;;23.08;12.35;;;;;;;;;;5017931;28;20051;-68
2023/01/22 02:31:51;;;;;;;23.02;12.05;;;;;;;;;;5018331;28;20044;-68
2023/01/22 02:34:18;;;;;;;23.52;12.25;;;;;;;;;;5035007;28;20541;-68
2023/01/22 02:36:44;;;;;;;19.95;9.95;;;;;;;;;;5034110;28;20418;-68
2023/01/22 02:39:10;;;;;;;18.15;10.05;;;;;;;;;;5034971;28;20037;-68
2023/01/22 02:41:36;;;;;;;21.45;10.77;;;;;;;;;;5034539;28;20495;-68
2023/01/22 02:44:02;;;;;;;20.25;11.00;;;;;;;;;;5034395;28;20499;-68
2023/01/22 02:46:29;;;;;;;21.40;10.88;;;;;;;;;;5033960;28;20051;-68
2023/01/22 02:48:55;;;;;;;19.33;10.93;;;;;;;;;;5017966;28;20083;-68
2023/01/22 02:51:21;;;;;;;16.92;10.25;;;;;;;;;;5034269;28;20047;-68
2023/01/22 02:53:47;;;;;;;17.95;9.60;;;;;;;;;;5034075;28;20476;-68
2023/01/22 02:56:13;;;;;;;19.50;9.70;;;;;;;;;;5034241;28;20037;-68
2023/01/22 02:58:39;;;;;;;17.92;9.20;;;;;;;;;;5034189;28;20041;-68
2023/01/22 03:01:19;;;;;;;15.30;9.55;;;;;;;;;;5034067;28;20048;-68
2023/01/22 03:03:56;;;;;;;19.15;9.57;;;;;;;;;;5034085;28;20127;-68
2023/01/22 03:06:23;;;;;;;14.20;8.57;;;;;;;;;;5033651;28;20041;-68
2023/01/22 03:08:54;;;;;;;15.43;7.93;;;;;;;;;;5033850;28;20095;-68
2023/01/22 03:11:20;;;;;;;12.73;7.35;;;;;;;;;;5034022;28;20132;-67
2023/01/22 03:22:00;;;;;;;14.38;7.22;;;;;;;;;;5033314;28;20041;-67
2023/01/22 03:24:26;;;;;;;13.75;7.53;;;;;;;;;;5033267;28;20036;-67
2023/01/22 03:26:52;;;;;;;12.63;7.05;;;;;;;;;;5046685;28;20037;-67
2023/01/22 03:29:20;;;;;;;10.90;7.05;;;;;;;;;;5033649;28;20433;-67
2023/01/22 03:31:47;;;;;;;12.93;7.05;;;;;;;;;;5033741;28;20052;-67
2023/01/22 03:34:20;;;;;;;12.25;7.03;;;;;;;;;;5033490;28;20045;-67
2023/01/22 03:36:46;;;;;;;11.20;6.88;;;;;;;;;;5033339;28;20103;-67
2023/01/22 03:39:13;;;;;;;12.75;7.30;;;;;;;;;;5016753;28;20036;-67
2023/01/22 03:41:39;;;;;;;12.65;7.50;;;;;;;;;;5033223;28;20040;-67
2023/01/22 03:44:08;;;;;;;12.05;6.97;;;;;;;;;;5032987;28;20049;-67
2023/01/22 03:46:34;;;;;;;13.52;7.32;;;;;;;;;;5033161;28;20087;-67
2023/01/22 03:49:00;;;;;;;11.70;6.60;;;;;;;;;;5032990;28;20044;-67
2023/01/22 03:51:26;;;;;;;11.52;6.70;;;;;;;;;;5032976;28;20073;-67
2023/01/22 03:53:52;;;;;;;10.55;6.55;;;;;;;;;;5016464;28;20407;-67
2023/01/22 03:56:22;;;;;;;11.20;6.25;;;;;;;;;;5016726;28;20041;-68
2023/01/22 03:58:49;;;;;;;15.75;6.38;;;;;;;;;;5032853;28;20565;-68
2023/01/22 04:01:19;;;;;;;11.00;6.65;;;;;;;;;;5016924;28;20045;-67
2023/01/22 04:03:45;;;;;;;10.60;5.78;;;;;;;;;;5032808;28;20086;-67
2023/01/22 04:06:11;;;;;;;11.40;6.63;;;;;;;;;;5033071;28;20053;-67
2023/01/22 04:08:38;;;;;;;10.35;5.93;;;;;;;;;;5032808;28;20091;-67
2023/01/22 04:11:04;;;;;;;9.30;6.07;;;;;;;;;;5032846;28;20037;-67
2023/01/22 04:13:31;;;;;;;10.52;5.82;;;;;;;;;;5032509;28;20514;-67
2023/01/22 04:15:58;;;;;;;8.68;6.25;;;;;;;;;;5032873;28;20086;-67
2023/01/22 04:18:24;;;;;;;10.00;6.25;;;;;;;;;;5016692;28;20510;-67
2023/01/22 04:20:50;;;;;;;9.02;5.78;;;;;;;;;;5032330;28;20515;-67
2023/01/22 04:23:16;;;;;;;13.05;6.05;;;;;;;;;;5016129;28;20407;-67
2023/01/22 04:25:43;;;;;;;9.75;5.75;;;;;;;;;;5016252;28;20476;-67
2023/01/22 04:28:09;;;;;;;10.57;5.65;;;;;;;;;;5032207;28;20044;-67
2023/01/22 04:30:36;;;;;;;10.02;5.75;;;;;;;;;;5032666;28;20412;-67
2023/01/22 04:33:02;;;;;;;10.68;5.63;;;;;;;;;;5032327;28;20033;-67
2023/01/22 04:35:28;;;;;;;9.98;6.28;;;;;;;;;;5031722;28;20099;-67
2023/01/22 04:37:54;;;;;;;7.35;4.97;;;;;;;;;;5032444;28;20049;-67
2023/01/22 04:40:20;;;;;;;9.02;5.53;;;;;;;;;;5032573;28;20142;-67
2023/01/22 04:42:47;;;;;;;11.75;5.65;;;;;;;;;;5031974;28;20126;-67
2023/01/22 04:45:13;;;;;;;11.82;5.53;;;;;;;;;;5050220;28;20068;-67
2023/01/22 04:47:43;;;;;;;8.68;5.30;;;;;;;;;;5032261;28;20103;-67
2023/01/22 04:50:14;;;;;;;10.80;5.57;;;;;;;;;;5031934;28;20127;-67
2023/01/22 04:52:40;;;;;;;12.15;5.22;;;;;;;;;;5032227;28;20108;-67
2023/01/22 04:55:06;;;;;;;10.00;5.80;;;;;;;;;;5032358;28;20123;-67
2023/01/22 04:57:32;;;;;;;8.65;5.22;;;;;;;;;;5031826;28;20048;-67
2023/01/22 04:59:58;;;;;;;9.90;6.18;;;;;;;;;;5032316;28;20053;-67
2023/01/22 05:02:24;;;;;;;10.63;5.93;;;;;;;;;;5032268;28;20045;-67
2023/01/22 05:04:50;;;;;;;8.98;5.07;;;;;;;;;;5031725;28;20398;-67
2023/01/22 05:07:16;;;;;;;9.32;5.70;;;;;;;;;;5032286;28;20041;-67
2023/01/22 05:09:42;;;;;;;9.35;5.40;;;;;;;;;;5032122;28;20033;-67
2023/01/22 05:12:08;;;;;;;7.95;5.10;;;;;;;;;;5031724;28;20124;-67
2023/01/22 05:14:34;;;;;;;9.23;6.22;;;;;;;;;;5031868;28;20041;-67
2023/01/22 05:17:00;;;;;;;11.07;5.68;;;;;;;;;;5032274;28;20132;-67
2023/01/22 05:19:26;;;;;;;10.15;6.30;;;;;;;;;;5031774;28;20068;-67
2023/01/22 05:21:52;;;;;;;7.72;5.43;;;;;;;;;;5031805;28;20099;-67
2023/01/22 05:24:18;;;;;;;9.30;5.40;;;;;;;;;;5032267;28;20518;-68
2023/01/22 05:26:45;;;;;;;10.55;5.97;;;;;;;;;;5031726;28;20048;-67
2023/01/22 05:29:11;;;;;;;8.88;5.60;;;;;;;;;;5031673;28;20378;-67
2023/01/22 05:31:37;;;;;;;8.70;6.03;;;;;;;;;;5032217;28;20494;-67
2023/01/22 05:34:03;;;;;;;11.13;5.70;;;;;;;;;;5031956;28;20044;-67
2023/01/22 05:36:30;;;;;;;11.10;5.68;;;;;;;;;;5031661;28;20107;-67
2023/01/22 05:38:56;;;;;;;9.27;5.70;;;;;;;;;;5031957;28;20488;-67
2023/01/22 05:41:22;;;;;;;7.15;5.22;;;;;;;;;;5032090;28;20037;-67
2023/01/22 05:43:48;;;;;;;10.05;5.25;;;;;;;;;;5031349;28;20045;-67
2023/01/22 05:46:15;;;;;;;10.80;6.40;;;;;;;;;;5031912;28;20045;-67
2023/01/22 05:48:41;;;;;;;9.38;5.63;;;;;;;;;;5034809;28;20041;-67
2023/01/22 05:51:07;;;;;;;10.80;6.20;;;;;;;;;;5018694;28;20497;-67
2023/01/22 05:53:34;;;;;;;8.80;6.10;;;;;;;;;;5035365;28;20041;-67
2023/01/22 05:56:04;;;;;;;10.13;5.95;;;;;;;;;;5035414;28;20052;-67
2023/01/22 05:58:30;;;;;;;10.82;6.22;;;;;;;;;;5034770;28;20468;-67
2023/01/22 06:00:57;;;;;;;8.77;6.47;;;;;;;;;;5035423;28;20103;-67
2023/01/22 06:03:23;;;;;;;8.07;5.55;;;;;;;;;;5035128;28;20047;-67
2023/01/22 06:05:59;;;;;;;9.57;5.47;;;;;;;;;;5035072;28;20060;-67
2023/01/22 06:08:26;;;;;;;10.57;5.70;;;;;;;;;;5034803;28;20044;-67
2023/01/22 06:10:58;;;;;;;10.02;5.90;;;;;;;;;;5035100;28;20391;-67
2023/01/22 06:13:24;;;;;;;9.30;5.60;;;;;;;;;;5034353;28;20146;-67
2023/01/22 06:15:52;;;;;;;11.57;5.57;;;;;;;;;;5035003;28;20045;-67
2023/01/22 06:18:18;;;;;;;9.55;5.65;;;;;;;;;;5034969;28;20044;-67
2023/01/22 06:20:44;;;;;;;10.45;5.97;;;;;;;;;;5034552;28;20403;-67
2023/01/22 06:23:11;;;;;;;9.00;5.53;;;;;;;;;;5034614;28;20391;-67
2023/01/22 06:25:37;;;;;;;10.48;5.75;;;;;;;;;;5035031;28;20639;-67
2023/01/22 06:28:03;;;;;;;12.27;5.90;;;;;;;;;;5034245;28;20041;-67
2023/01/22 06:30:29;;;;;;;6.22;5.03;;;;;;;;;;5034936;28;20537;-67
2023/01/22 06:32:55;;;;;;;9.35;5.20;;;;;;;;;;5034757;28;20127;-67
2023/01/22 06:35:21;;;;;;;9.80;5.47;;;;;;;;;;5034524;28;20156;-67
2023/01/22 06:37:47;;;;;;;9.73;6.07;;;;;;;;;;5034849;28;20056;-67
2023/01/22 06:40:13;;;;;;;9.95;5.70;;;;;;;;;;5052391;28;20041;-67
2023/01/22 06:42:39;;;;;;;10.02;6.07;;;;;;;;;;5034117;28;20365;-67
2023/01/22 06:45:06;;;;;;;10.27;5.57;;;;;;;;;;5034418;28;20040;-67
2023/01/22 06:47:31;;;;;;;9.48;5.70;;;;;;;;;;5034473;28;20431;-67
2023/01/22 06:49:58;;;;;;;10.85;5.82;;;;;;;;;;5034073;28;20255;-67
2023/01/22 06:52:24;;;;;;;10.48;6.13;;;;;;;;;;5034482;28;20096;-67
2023/01/22 06:54:50;;;;;;;9.27;6.03;;;;;;;;;;5034092;28;20471;-67
2023/01/22 06:57:16;;;;;;;10.27;5.95;;;;;;;;;;5034003;28;20033;-68
2023/01/22 06:59:42;;;;;;;11.05;6.22;;;;;;;;;;5033514;28;20041;-67
2023/01/22 07:02:11;;;;;;;9.63;5.85;;;;;;;;;;5034237;28;20442;-67
2023/01/22 07:04:37;;;;;;;14.20;5.90;;;;;;;;;;5033541;28;20052;-67
2023/01/22 07:07:04;;;;;;;10.68;5.97;;;;;;;;;;5034216;28;20056;-67
2023/01/22 07:09:30;;;;;;;9.88;5.47;;;;;;;;;;5033907;28;20033;-67
2023/01/22 07:11:57;;;;;;;7.20;5.25;;;;;;;;;;5033628;28;20037;-67
2023/01/22 07:14:23;;;;;;;9.18;5.47;;;;;;;;;;5033725;28;20503;-67
2023/01/22 07:16:49;;;;;;;9.48;5.88;;;;;;;;;;5034102;28;20075;-67
2023/01/22 07:19:15;;;;;;;9.10;5.45;;;;;;;;;;5051051;28;20140;-67
2023/01/22 07:21:41;;;;;;;9.25;6.22;;;;;;;;;;5033833;28;20037;-67
2023/01/22 07:24:07;;;;;;;9.30;6.10;;;;;;;;;;5033708;28;20418;-67
2023/01/22 07:26:33;;;;;;;9.48;6.18;;;;;;;;;;5033041;28;20040;-67
2023/01/22 07:28:59;;;;;;;9.93;6.18;;;;;;;;;;5017531;28;20551;-67
2023/01/22 07:31:25;;;;;;;10.50;5.72;;;;;;;;;;5033538;28;20167;-67
2023/01/22 07:33:51;;;;;;;9.95;6.00;;;;;;;;;;5033381;28;20036;-67
2023/01/22 07:36:17;;;;;;;8.95;5.72;;;;;;;;;;5017270;28;20048;-67
2023/01/22 07:38:43;;;;;;;10.25;6.13;;;;;;;;;;5033430;28;20037;-68
2023/01/22 07:41:09;;;;;;;11.80;6.65;;;;;;;;;;5033189;28;20041;-67
2023/01/22 07:43:35;;;;;;;11.18;6.43;;;;;;;;;;5033547;28;20055;-67
2023/01/22 07:46:02;;;;;;;9.30;6.55;;;;;;;;;;5016485;28;20426;-67
2023/01/22 07:48:29;;;;;;;10.75;6.68;;;;;;;;;;5016380;28;20060;-67
2023/01/22 07:50:58;;;;;;;10.13;6.93;;;;;;;;;;5032972;28;20029;-67
2023/01/22 07:53:24;;;;;;;10.52;6.93;;;;;;;;;;5016611;28;20033;-67
2023/01/22 07:55:50;;;;;;;10.15;6.18;;;;;;;;;;5032725;28;20579;-67
2023/01/22 07:58:16;;;;;;;9.90;6.70;;;;;;;;;;5033298;28;20037;-67
2023/01/22 08:00:42;;;;;;;14.48;7.10;;;;;;;;;;5032947;28;20040;-67
2023/01/22 08:03:13;;;;;;;9.75;6.60;;;;;;;;;;5015982;28;20048;-67
2023/01/22 08:05:40;;;;;;;12.23;6.80;;;;;;;;;;5033099;28;20055;-67
2023/01/22 08:08:06;;;;;;;10.07;6.30;;;;;;;;;;5016436;28;20082;-67
2023/01/22 08:10:32;;;;;;;10.10;6.25;;;;;;;;;;5031668;28;20071;-67
2023/01/22 08:12:58;;;;;;;8.85;6.53;;;;;;;;;;5032972;28;20083;-67
2023/01/22 08:15:24;;;;;;;9.73;6.03;;;;;;;;;;5033057;28;20064;-67
2023/01/22 08:17:50;;;;;;;9.43;7.32;;;;;;;;;;5050123;28;20070;-67
2023/01/22 08:20:17;;;;;;;10.55;6.53;;;;;;;;;;5032696;28;20542;-67
2023/01/22 08:22:44;;;;;;;13.73;7.30;;;;;;;;;;5032883;28;20044;-67
2023/01/22 08:25:10;;;;;;;10.35;6.70;;;;;;;;;;5032369;28;20049;-67
2023/01/22 08:27:36;;;;;;;8.27;6.45;;;;;;;;;;5032653;28;20454;-67
2023/01/22 08:30:03;;;;;;;9.30;6.45;;;;;;;;;;5032655;28;20558;-67
2023/01/22 08:32:29;;;;;;;10.13;6.10;;;;;;;;;;5032172;28;20037;-67
2023/01/22 08:34:55;;;;;;;11.20;6.93;;;;;;;;;;5032732;28;20515;-67
2023/01/22 08:37:21;;;;;;;13.63;7.00;;;;;;;;;;5032355;28;20075;-67
2023/01/22 08:39:47;;;;;;;10.15;6.68;;;;;;;;;;5032438;28;20510;-67
2023/01/22 08:42:14;;;;;;;11.05;6.50;;;;;;;;;;5032394;28;20114;-67
2023/01/22 08:44:40;;;;;;;8.60;6.63;;;;;;;;;;5032423;28;20036;-67
2023/01/22 08:47:06;;;;;;;11.85;6.78;;;;;;;;;;5031787;28;20127;-67
2023/01/22 08:49:32;;;;;;;13.95;6.97;;;;;;;;;;5032505;28;20438;-67
2023/01/22 08:51:58;;;;;;;12.50;6.85;;;;;;;;;;5032166;28;20075;-67
2023/01/22 08:54:25;;;;;;;12.10;7.50;;;;;;;;;;5015646;28;20396;-67
2023/01/22 08:56:51;;;;;;;9.63;6.35;;;;;;;;;;5032336;28;20045;-67
2023/01/22 08:59:17;;;;;;;8.73;6.60;;;;;;;;;;5032302;28;20044;-67
2023/01/22 09:01:43;;;;;;;12.35;6.65;;;;;;;;;;5015965;28;20044;-67
2023/01/22 09:04:10;;;;;;;7.97;6.07;;;;;;;;;;5031984;28;20045;-67
2023/01/22 09:06:37;;;;;;;12.25;6.40;;;;;;;;;;5032424;28;20068;-67
2023/01/22 09:09:03;;;;;;;10.35;6.35;;;;;;;;;;5031757;28;20106;-67
2023/01/22 09:11:29;;;;;;;11.23;6.28;;;;;;;;;;5032410;28;20070;-67
2023/01/22 09:13:56;;;;;;;9.50;6.78;;;;;;;;;;5031971;28;20079;-67
2023/01/22 09:16:26;;;;;;;7.90;5.90;;;;;;;;;;5031955;28;20613;-67
2023/01/22 09:18:52;;;;;;;10.85;6.63;;;;;;;;;;5032019;28;20049;-67
2023/01/22 09:21:18;;;;;;;9.73;6.45;;;;;;;;;;5032064;28;20080;-68
2023/01/22 09:23:45;;;;;;;10.90;6.65;;;;;;;;;;5035329;28;20049;-67
2023/01/22 09:26:11;;;;;;;8.88;6.10;;;;;;;;;;5053786;28;20040;-67
2023/01/22 09:28:37;;;;;;;9.25;6.65;;;;;;;;;;5035744;28;20063;-67
2023/01/22 09:31:04;;;;;;;10.82;6.55;;;;;;;;;;5035870;28;20041;-67
2023/01/22 09:33:30;;;;;;;10.18;6.60;;;;;;;;;;5035507;28;20041;-67
2023/01/22 09:36:05;;;;;;;11.98;7.13;;;;;;;;;;5035695;28;20037;-67
2023/01/22 09:38:31;;;;;;;10.85;6.28;;;;;;;;;;5035693;28;20468;-68
2023/01/22 09:41:00;;;;;;;13.30;7.00;;;;;;;;;;5035673;28;20083;-68
2023/01/22 09:43:33;;;;;;;10.75;6.97;;;;;;;;;;5019091;28;20041;-68
2023/01/22 09:46:01;;;;;;;10.15;7.05;;;;;;;;;;5035321;28;20049;-68
2023/01/22 09:48:34;;;;;;;11.18;6.47;;;;;;;;;;5035535;28;20044;-68
2023/01/22 09:51:00;;;;;;;12.50;7.60;;;;;;;;;;5035545;28;20142;-68
2023/01/22 09:53:27;;;;;;;9.75;6.65;;;;;;;;;;5035141;28;20029;-68
2023/01/22 09:55:54;;;;;;;10.73;6.88;;;;;;;;;;5053325;28;20102;-68
2023/01/22 09:58:22;;;;;;;10.80;6.95;;;;;;;;;;5035477;28;20102;-68
2023/01/22 10:00:48;;;;;;;10.48;6.57;;;;;;;;;;5035075;28;20045;-68
2023/01/22 10:03:17;;;;;;;10.38;6.22;;;;;;;;;;5035344;28;20041;-68
2023/01/22 10:05:48;;;;;;;10.60;6.78;;;;;;;;;;5034996;28;20128;-68
2023/01/22 10:08:14;;;;;;;7.70;5.67;;;;;;;;;;5034993;28;20052;-68
2023/01/22 10:10:40;;;;;;;12.20;6.57;;;;;;;;;;5035017;28;20043;-68
2023/01/22 10:13:09;;;;;;;11.27;6.97;;;;;;;;;;5045789;28;20391;-68
2023/01/22 10:15:35;;;;;;;9.18;6.57;;;;;;;;;;5034918;28;20037;-68
2023/01/22 10:18:04;;;;;;;8.95;6.18;;;;;;;;;;5034896;28;20095;-68
2023/01/22 10:20:31;;;;;;;9.73;6.53;;;;;;;;;;5034609;28;20127;-68
2023/01/22 10:23:00;;;;;;;10.65;6.53;;;;;;;;;;5034742;28;20076;-68
2023/01/22 10:25:27;;;;;;;9.18;6.82;;;;;;;;;;5034761;28;20388;-68
2023/01/22 10:27:59;;;;;;;9.63;6.97;;;;;;;;;;5034716;28;20036;-68
2023/01/22 10:30:25;;;;;;;11.88;6.97;;;;;;;;;;5034277;28;20033;-68
2023/01/22 10:32:59;;;;;;;9.60;6.68;;;;;;;;;;5034962;28;20460;-68
2023/01/22 10:35:25;;;;;;;11.55;7.25;;;;;;;;;;5033737;28;20036;-68
2023/01/22 10:37:52;;;;;;;11.85;7.53;;;;;;;;;;5017699;28;20048;-68
2023/01/22 10:40:23;;;;;;;11.10;7.57;;;;;;;;;;5034775;28;20053;-68
2023/01/22 10:43:01;;;;;;;10.15;7.93;;;;;;;;;;5034486;28;20048;-68
2023/01/22 10:45:28;;;;;;;11.18;7.72;;;;;;;;;;5034297;28;20040;-68
2023/01/22 10:48:04;;;;;;;12.13;7.30;;;;;;;;;;5034445;28;20045;-68
2023/01/22 10:50:30;;;;;;;10.55;7.20;;;;;;;;;;5034388;28;20598;-68
2023/01/22 10:52:57;;;;;;;10.63;7.30;;;;;;;;;;5034003;28;20048;-68
2023/01/22 10:55:41;;;;;;;12.48;8.13;;;;;;;;;;5034244;28;20391;-68
2023/01/22 10:58:14;;;;;;;12.23;7.57;;;;;;;;;;5034288;28;20040;-68
2023/01/22 11:00:40;;;;;;;13.68;7.70;;;;;;;;;;5034198;28;20076;-68
2023/01/22 11:03:41;;;;;;;15.80;8.32;;;;;;;;;;5034318;28;20049;-68
2023/01/22 11:06:10;;;;;;;13.35;7.70;;;;;;;;;;4954555;28;20054;-68
2023/01/22 11:08:48;;;;;;;17.45;8.40;;;;;;;;;;5018808;28;20060;-68
2023/01/22 11:11:17;;;;;;;12.60;7.85;;;;;;;;;;5034262;28;20521;-68
2023/01/22 11:13:46;;;;;;;11.95;8.23;;;;;;;;;;5034038;28;20102;-68
2023/01/22 11:16:12;;;;;;;10.88;8.10;;;;;;;;;;5033467;28;20037;-68
2023/01/22 11:18:39;;;;;;;13.95;8.48;;;;;;;;;;5033874;28;20041;-68
2023/01/22 11:21:20;;;;;;;11.38;8.45;;;;;;;;;;5033762;28;20159;-68
2023/01/22 11:23:52;;;;;;;13.10;8.43;;;;;;;;;;5033299;28;20098;-68
2023/01/22 11:26:25;;;;;;;12.60;8.00;;;;;;;;;;5033496;28;20171;-68
2023/01/22 11:28:51;;;;;;;14.13;8.63;;;;;;;;;;5017228;28;20463;-68
2023/01/22 11:31:26;;;;;;;12.13;8.45;;;;;;;;;;5033544;28;20041;-68
2023/01/22 11:34:11;;;;;;;14.60;8.27;;;;;;;;;;5033517;28;20036;-68
2023/01/22 11:36:41;;;;;;;14.07;8.63;;;;;;;;;;5017392;28;20037;-68
2023/01/22 11:39:17;;;;;;;11.38;7.75;;;;;;;;;;5032990;28;20048;-68
2023/01/22 11:41:58;;;;;;;13.70;8.07;;;;;;;;;;5033255;28;20090;-68
2023/01/22 11:44:40;;;;;;;12.80;8.63;;;;;;;;;;5033145;28;20055;-68
2023/01/22 11:47:18;;;;;;;11.30;8.23;;;;;;;;;;5033113;28;20048;-68
2023/01/22 11:49:44;;;;;;;12.80;8.43;;;;;;;;;;5033490;28;20135;-68
2023/01/22 11:52:25;;;;;;;12.70;8.75;;;;;;;;;;5016255;28;20472;-68
2023/01/22 11:54:57;;;;;;;10.73;7.43;;;;;;;;;;5033418;28;20044;-68
2023/01/22 11:57:36;;;;;;;12.88;8.52;;;;;;;;;;5033624;28;20041;-68
2023/01/22 12:00:21;;;;;;;12.40;8.35;;;;;;;;;;5032984;28;20519;-68
2023/01/22 12:03:06;;;;;;;9.80;7.40;;;;;;;;;;5032892;28;20041;-68
2023/01/22 12:05:45;;;;;;;12.02;8.50;;;;;;;;;;5033289;28;20040;-68
2023/01/22 12:08:15;;;;;;;11.60;7.93;;;;;;;;;;5032512;28;20044;-68
2023/01/22 12:11:00;;;;;;;9.60;7.90;;;;;;;;;;5033015;28;20433;-68
2023/01/22 12:13:27;;;;;;;12.90;8.40;;;;;;;;;;5032815;28;20044;-68
2023/01/22 12:16:05;;;;;;;11.98;7.93;;;;;;;;;;5032435;28;20047;-68
2023/01/22 12:18:50;;;;;;;12.18;7.38;;;;;;;;;;5032604;28;20498;-68
2023/01/22 12:21:26;;;;;;;14.45;8.48;;;;;;;;;;5013281;28;20047;-68
2023/01/22 12:24:07;;;;;;;12.77;8.68;;;;;;;;;;5012988;28;20041;-68
2023/01/22 12:26:37;;;;;;;10.43;8.38;;;;;;;;;;5013356;28;20068;-68
2023/01/22 12:29:03;;;;;;;12.57;8.18;;;;;;;;;;5012420;28;20068;-68
2023/01/22 12:31:38;;;;;;;11.95;8.40;;;;;;;;;;5013248;28;20476;-68
2023/01/22 12:34:09;;;;;;;13.45;9.05;;;;;;;;;;5012674;28;20034;-68
2023/01/22 12:36:36;;;;;;;16.17;8.57;;;;;;;;;;5012447;28;20040;-68
2023/01/22 12:39:25;;;;;;;11.55;8.32;;;;;;;;;;5012584;28;20037;-68
2023/01/22 12:42:00;;;;;;;16.25;8.63;;;;;;;;;;5012861;28;20037;-68
2023/01/22 12:44:29;;;;;;;14.45;8.65;;;;;;;;;;4995893;28;20488;-68
2023/01/22 12:47:01;;;;;;;15.82;8.60;;;;;;;;;;5012957;28;20038;-68
2023/01/22 12:49:27;;;;;;;14.32;8.70;;;;;;;;;;5012926;28;20041;-68
2023/01/22 12:51:54;;;;;;;15.10;9.25;;;;;;;;;;4996101;28;20420;-68
2023/01/22 12:54:20;;;;;;;13.05;8.68;;;;;;;;;;5012255;28;20045;-68
2023/01/22 12:56:47;;;;;;;12.10;7.65;;;;;;;;;;5013437;28;20542;-68
2023/01/22 12:59:51;;;;;;;12.93;8.35;;;;;;;;;;5016258;28;20041;-68
2023/01/22 13:02:20;;;;;;;11.00;8.32;;;;;;;;;;4918665;29;20046;-68
2023/01/22 13:04:46;;;;;;;11.35;7.70;;;;;;;;;;4933964;29;20048;-68
2023/01/22 13:07:33;;;;;;;12.55;8.13;;;;;;;;;;4975753;28;20438;-68
2023/01/22 13:10:18;;;;;;;10.77;7.72;;;;;;;;;;5016477;28;20049;-68
2023/01/22 13:12:49;;;;;;;12.02;8.07;;;;;;;;;;5005712;28;20049;-68
2023/01/22 13:15:22;;;;;;;10.45;7.78;;;;;;;;;;4996639;28;20037;-68
2023/01/22 13:17:55;;;;;;;11.27;7.90;;;;;;;;;;4996624;28;20056;-68
2023/01/22 13:20:21;;;;;;;;;;;;;;;;;;5009056;28;20133;-68
2023/01/22 13:22:47;;;;;;;11.95;7.05;;;;;;;;;;5015911;28;20015;-68
2023/01/22 13:25:23;;;;;;;9.27;7.32;;;;;;;;;;5018733;28;21669;-68
2023/01/22 13:27:50;;;;;;;12.35;7.40;;;;;;;;;;5036095;28;20465;-68
2023/01/22 13:30:17;;;;;;;10.13;6.78;;;;;;;;;;5035329;28;20060;-68
2023/01/22 13:32:43;;;;;;;16.00;8.02;;;;;;;;;;5035993;28;20044;-68
2023/01/22 13:35:12;;;;;;;10.90;7.95;;;;;;;;;;5019486;28;20097;-68
2023/01/22 13:37:40;;;;;;;13.05;7.63;;;;;;;;;;5035621;28;20716;-68
2023/01/22 13:40:13;;;;;;;10.20;6.80;;;;;;;;;;5053798;28;20116;-68
2023/01/22 13:42:43;;;;;;;12.73;6.85;;;;;;;;;;5035562;28;20115;-68
2023/01/22 13:45:21;;;;;;;11.32;7.18;;;;;;;;;;5035617;28;20120;-68
2023/01/22 13:47:47;;;;;;;13.02;7.38;;;;;;;;;;5035692;28;20853;-68
2023/01/22 13:50:20;;;;;;;10.02;7.32;;;;;;;;;;5035075;28;20135;-68
2023/01/22 13:52:49;;;;;;;12.32;7.40;;;;;;;;;;5035409;28;20041;-68
2023/01/22 13:55:19;;;;;;;12.30;7.15;;;;;;;;;;5018995;28;20040;-68
2023/01/22 13:57:47;;;;;;;11.48;7.47;;;;;;;;;;5035041;28;20041;-68
2023/01/22 14:00:22;;;;;;;10.55;7.60;;;;;;;;;;5035415;28;20044;-68
2023/01/22 14:02:48;;;;;;;11.05;6.90;;;;;;;;;;5035090;28;20048;-68
2023/01/22 14:05:19;;;;;;;11.32;7.57;;;;;;;;;;5035006;28;20041;-68
2023/01/22 14:07:46;;;;;;;11.68;7.07;;;;;;;;;;5035106;28;20098;-68
2023/01/22 14:10:14;;;;;;;15.13;7.80;;;;;;;;;;5034295;28;20673;-68
2023/01/22 14:12:40;;;;;;;12.35;7.57;;;;;;;;;;5034786;28;20041;-68
2023/01/22 14:15:17;;;;;;;12.10;7.72;;;;;;;;;;5035093;28;20491;-68
2023/01/22 14:17:43;;;;;;;9.90;6.63;;;;;;;;;;5034929;28;20079;-68
2023/01/22 14:20:09;;;;;;;10.57;7.38;;;;;;;;;;5034668;28;20534;-68
2023/01/22 14:22:35;;;;;;;11.10;7.13;;;;;;;;;;5034673;28;20422;-68
2023/01/22 14:25:01;;;;;;;12.20;8.05;;;;;;;;;;5035016;28;20111;-68
2023/01/22 14:27:47;;;;;;;13.55;7.10;;;;;;;;;;5034673;28;20049;-68
2023/01/22 14:30:15;;;;;;;14.98;7.95;;;;;;;;;;5034805;28;20079;-68
2023/01/22 14:32:41;;;;;;;13.05;7.30;;;;;;;;;;5034697;28;20033;-68
2023/01/22 14:35:15;;;;;;;10.48;6.93;;;;;;;;;;5052268;28;20080;-68
2023/01/22 14:37:41;;;;;;;10.43;7.03;;;;;;;;;;5034637;28;20067;-68
2023/01/22 14:40:08;;;;;;;11.73;7.18;;;;;;;;;;5018190;28;20084;-68
2023/01/22 14:42:34;;;;;;;13.65;7.35;;;;;;;;;;5034155;28;20471;-68
2023/01/22 14:45:00;;;;;;;10.82;7.22;;;;;;;;;;5034690;28;20048;-68
2023/01/22 14:47:26;;;;;;;14.55;7.45;;;;;;;;;;5034951;28;20070;-68